Terminal Aerodrome Forecast
Issued by NWS Bismarck, ND

Home | Current Version | Previous Version | Graphics & Text | Print | Product List | Glossary On
Versions: 1 2 3 4 5 6 7 8 9 10 11 12 13 14 15 16 17 18 19 20 21 22
000
FTUS43 KBIS 240702 AAB
TAFBIS
TAF AMD
KBIS 240702Z 2407/2506 13004KT P6SM VCTS SCT090CB BKN200
      TEMPO 2407/2409 17025G32KT -TSRA BKN090CB
     FM240900 15006KT P6SM VCTS FEW060CB SCT250
     FM241200 15005KT P6SM FEW060 SCT200
     FM242100 23011G19KT P6SM FEW050 SCT250=

USA.gov is the U.S. government's official web portal to all federal, state and local government web resources and services.